createdAt,value
2023-02-01T00:00:57.121Z,16.55
2023-02-01T00:01:57.147Z,16.62
2023-02-01T00:02:57.166Z,16.59
2023-02-01T00:03:57.356Z,16.63
2023-02-01T00:04:57.218Z,16.63
2023-02-01T00:05:57.247Z,16.65
2023-02-01T00:06:57.599Z,16.63
2023-02-01T00:07:57.301Z,16.66
2023-02-01T00:08:57.326Z,16.62
2023-02-01T00:09:57.358Z,16.63
2023-02-01T00:10:57.389Z,16.59
2023-02-01T00:11:57.402Z,16.59
2023-02-01T00:13:57.763Z,16.63
2023-02-01T00:14:57.501Z,16.57
2023-02-01T00:15:57.561Z,16.59
2023-02-01T00:17:57.566Z,16.55
2023-02-01T00:18:57.596Z,16.59
2023-02-01T00:19:57.616Z,16.60
2023-02-01T00:20:57.889Z,16.66
2023-02-01T00:21:57.777Z,16.62
2023-02-01T00:22:57.719Z,16.57
2023-02-01T00:23:57.731Z,16.63
2023-02-01T00:24:57.751Z,16.55
2023-02-01T00:25:57.780Z,16.54
2023-02-01T00:26:57.802Z,16.50
2023-02-01T00:27:58.126Z,16.52
2023-02-01T00:28:57.858Z,16.54
2023-02-01T00:29:57.894Z,16.50
2023-02-01T00:30:58.034Z,16.41
2023-02-01T00:31:58.008Z,16.45
2023-02-01T00:32:57.998Z,16.47
2023-02-01T00:33:57.986Z,16.47
2023-02-01T00:34:58.311Z,16.45
2023-02-01T00:35:58.037Z,16.47
2023-02-01T00:36:58.066Z,16.44
2023-02-01T00:37:58.086Z,16.45
2023-02-01T00:38:58.136Z,16.41
2023-02-01T00:39:58.150Z,16.41
2023-02-01T00:41:58.502Z,16.45
2023-02-01T00:42:58.325Z,16.44
2023-02-01T00:43:58.250Z,16.47
2023-02-01T00:44:58.273Z,16.41
2023-02-01T00:45:58.301Z,16.34
2023-02-01T00:46:58.325Z,16.37
2023-02-01T00:47:58.360Z,16.34
2023-02-01T00:48:58.680Z,16.42
2023-02-01T00:49:58.512Z,16.33
2023-02-01T00:50:58.430Z,16.40
2023-02-01T00:51:58.469Z,16.40
2023-02-01T00:52:58.491Z,16.41
2023-02-01T00:53:58.510Z,16.40
2023-02-01T00:54:58.556Z,16.34
2023-02-01T00:55:58.826Z,16.37
2023-02-01T00:56:58.595Z,16.36
2023-02-01T00:57:58.618Z,16.42
2023-02-01T00:58:58.662Z,16.42
2023-02-01T00:59:58.674Z,16.40
2023-02-01T01:00:58.738Z,16.34
2023-02-01T01:01:58.763Z,16.36
2023-02-01T01:02:59.057Z,16.37
2023-02-01T01:03:58.784Z,16.41
2023-02-01T01:04:58.801Z,16.41
2023-02-01T01:05:58.834Z,16.32
2023-02-01T01:07:58.876Z,16.44
2023-02-01T01:08:58.909Z,16.44
2023-02-01T01:09:59.190Z,16.42
2023-02-01T01:10:58.998Z,16.36
2023-02-01T01:11:59.084Z,16.32
2023-02-01T01:12:59.008Z,16.41
2023-02-01T01:14:59.074Z,16.34
2023-02-01T01:15:59.148Z,16.34
2023-02-01T01:16:59.435Z,16.36
2023-02-01T01:17:59.149Z,16.27
2023-02-01T01:18:59.179Z,16.25
2023-02-01T01:20:00.043Z,16.25
2023-02-01T01:20:59.238Z,16.32
2023-02-01T01:21:59.248Z,16.30
2023-02-01T01:22:59.303Z,16.26
2023-02-01T01:23:59.552Z,16.23
2023-02-01T01:24:59.338Z,16.23
2023-02-01T01:25:59.354Z,16.29
2023-02-01T01:26:59.404Z,16.29
2023-02-01T01:27:59.409Z,16.23
2023-02-01T01:28:59.441Z,16.22
2023-02-01T01:29:59.469Z,16.13
2023-02-01T01:30:59.967Z,16.22
2023-02-01T01:31:59.607Z,16.26
2023-02-01T01:32:59.536Z,16.11
2023-02-01T01:33:59.587Z,16.17
2023-02-01T01:34:59.588Z,16.22
2023-02-01T01:35:59.614Z,16.11
2023-02-01T01:37:00.244Z,16.22
2023-02-01T01:37:59.916Z,16.11
2023-02-01T01:38:59.709Z,16.17
2023-02-01T01:39:59.723Z,16.22
2023-02-01T01:40:59.743Z,16.22
2023-02-01T01:41:59.776Z,16.18
2023-02-01T01:42:59.976Z,16.17
2023-02-01T01:44:00.228Z,16.10
2023-02-01T01:44:59.868Z,16.14
2023-02-01T01:45:59.885Z,16.08
2023-02-01T01:46:59.993Z,16.17
2023-02-01T01:47:59.937Z,16.17
2023-02-01T01:48:59.955Z,16.07
2023-02-01T01:50:00.233Z,16.08
2023-02-01T01:51:00.007Z,16.13
2023-02-01T01:52:00.068Z,16.18
2023-02-01T01:53:00.065Z,16.13
2023-02-01T01:54:00.187Z,16.16
2023-02-01T01:55:00.157Z,16.14
2023-02-01T01:56:00.444Z,16.14
2023-02-01T01:57:00.161Z,16.16
2023-02-01T01:58:00.189Z,16.08
2023-02-01T01:59:00.245Z,16.22
2023-02-01T02:00:00.251Z,16.10
2023-02-01T02:01:00.318Z,16.10
2023-02-01T02:02:00.348Z,16.11
2023-02-01T02:03:00.621Z,16.13
2023-02-01T02:04:00.366Z,16.18
2023-02-01T02:05:00.373Z,16.06
2023-02-01T02:06:00.399Z,16.10
2023-02-01T02:07:00.423Z,16.07
2023-02-01T02:08:00.453Z,16.10
2023-02-01T02:09:00.483Z,16.08
2023-02-01T02:10:01.592Z,16.04
2023-02-01T02:11:00.571Z,16.13
2023-02-01T02:12:00.700Z,16.10
2023-02-01T02:13:00.594Z,16.07
2023-02-01T02:14:00.609Z,16.04
2023-02-01T02:15:00.672Z,16.13
2023-02-01T02:16:00.684Z,16.10
2023-02-01T02:17:00.990Z,16.04
2023-02-01T02:18:00.712Z,16.11
2023-02-01T02:19:00.735Z,16.08
2023-02-01T02:20:00.790Z,16.06
2023-02-01T02:21:00.788Z,16.03
2023-02-01T02:22:00.829Z,16.03
2023-02-01T02:23:00.853Z,16.04
2023-02-01T02:24:01.126Z,16.04
2023-02-01T02:25:00.916Z,16.07
2023-02-01T02:26:00.928Z,16.04
2023-02-01T02:27:00.948Z,16.01
2023-02-01T02:28:00.978Z,15.99
2023-02-01T02:29:01.022Z,15.96
2023-02-01T02:30:01.027Z,15.99
2023-02-01T02:31:01.459Z,15.95
2023-02-01T02:32:01.075Z,15.95
2023-02-01T02:33:01.114Z,15.95
2023-02-01T02:35:01.159Z,15.96
2023-02-01T02:36:01.187Z,15.96
2023-02-01T02:38:01.557Z,15.96
2023-02-01T02:39:01.263Z,15.98
2023-02-01T02:41:01.321Z,15.88
2023-02-01T02:42:01.338Z,15.92
2023-02-01T02:43:01.383Z,15.93
2023-02-01T02:44:01.396Z,15.93
2023-02-01T02:45:01.678Z,15.92
2023-02-01T02:47:01.496Z,15.95
2023-02-01T02:48:01.604Z,15.93
2023-02-01T02:49:01.619Z,15.96
2023-02-01T02:50:01.553Z,15.91
2023-02-01T02:51:01.585Z,15.89
2023-02-01T02:52:01.951Z,15.95
2023-02-01T02:53:01.648Z,15.92
2023-02-01T02:54:01.651Z,15.88
2023-02-01T02:55:01.691Z,15.89
2023-02-01T02:57:01.739Z,15.89
2023-02-01T02:59:02.088Z,15.85
2023-02-01T03:00:01.804Z,15.86
2023-02-01T03:01:01.873Z,15.86
2023-02-01T03:02:01.861Z,15.78
2023-02-01T03:03:01.963Z,15.85
2023-02-01T03:04:01.912Z,15.78
2023-02-01T03:05:01.935Z,15.78
2023-02-01T03:06:02.267Z,15.92
2023-02-01T03:07:01.991Z,15.77
2023-02-01T03:08:02.027Z,15.73
2023-02-01T03:09:02.042Z,15.74
2023-02-01T03:10:02.069Z,15.74
2023-02-01T03:11:02.092Z,15.73
2023-02-01T03:13:02.397Z,15.76
2023-02-01T03:14:02.178Z,15.70
2023-02-01T03:16:02.236Z,15.70
2023-02-01T03:17:02.247Z,15.71
2023-02-01T03:18:02.278Z,15.66
2023-02-01T03:19:02.430Z,15.62
2023-02-01T03:20:02.685Z,15.68
2023-02-01T03:21:02.357Z,15.67
2023-02-01T03:22:02.380Z,15.66
2023-02-01T03:23:02.417Z,15.67
2023-02-01T03:24:02.448Z,15.64
2023-02-01T03:25:02.463Z,15.66
2023-02-01T03:26:02.497Z,15.62
2023-02-01T03:27:02.812Z,15.71
2023-02-01T03:28:02.594Z,15.60
2023-02-01T03:29:02.560Z,15.59
2023-02-01T03:30:02.606Z,15.64
2023-02-01T03:31:02.687Z,15.74
2023-02-01T03:33:02.915Z,15.60
2023-02-01T03:34:02.712Z,15.67
2023-02-01T03:35:02.844Z,15.59
2023-02-01T03:36:02.741Z,15.64
2023-02-01T03:37:02.770Z,15.60
2023-02-01T03:38:02.792Z,15.66
2023-02-01T03:39:03.118Z,15.73
2023-02-01T03:40:02.866Z,15.67
2023-02-01T03:41:02.883Z,15.51
2023-02-01T03:42:02.894Z,15.58
2023-02-01T03:43:02.940Z,15.67
2023-02-01T03:44:02.963Z,15.64
2023-02-01T03:45:03.286Z,15.56
2023-02-01T03:46:03.053Z,15.64
2023-02-01T03:47:03.024Z,15.64
2023-02-01T03:48:03.053Z,15.64
2023-02-01T03:51:03.455Z,15.56
2023-02-01T03:52:03.238Z,15.66
2023-02-01T03:53:03.183Z,15.59
2023-02-01T03:55:03.238Z,15.55
2023-02-01T03:56:03.269Z,15.58
2023-02-01T03:57:03.288Z,15.58
2023-02-01T03:58:03.621Z,15.59
2023-02-01T03:59:03.337Z,15.60
2023-02-01T04:00:03.365Z,15.55
2023-02-01T04:01:03.409Z,15.44
2023-02-01T04:02:03.583Z,15.51
2023-02-01T04:03:03.442Z,15.49
2023-02-01T04:04:03.462Z,15.52
2023-02-01T04:05:03.789Z,15.46
2023-02-01T04:06:03.514Z,15.51
2023-02-01T04:07:03.570Z,15.56
2023-02-01T04:08:03.571Z,15.52
2023-02-01T04:09:03.604Z,15.59
2023-02-01T04:10:03.622Z,15.49
2023-02-01T04:11:03.647Z,15.49
2023-02-01T04:12:03.974Z,15.51
2023-02-01T04:13:03.693Z,15.51
2023-02-01T04:16:03.775Z,15.48
2023-02-01T04:17:03.806Z,15.52
2023-02-01T04:18:03.823Z,15.51
2023-02-01T04:19:04.109Z,15.44
2023-02-01T04:20:03.881Z,15.52
2023-02-01T04:21:03.903Z,15.52
2023-02-01T04:22:03.940Z,15.55
2023-02-01T04:23:03.980Z,15.49
2023-02-01T04:24:03.989Z,15.51
2023-02-01T04:25:04.013Z,15.53
2023-02-01T04:26:04.306Z,15.52
2023-02-01T04:27:04.083Z,15.53
2023-02-01T04:28:04.097Z,15.53
2023-02-01T04:29:04.111Z,15.48
2023-02-01T04:30:04.152Z,15.53
2023-02-01T04:31:04.267Z,15.46
2023-02-01T04:32:04.190Z,15.48
2023-02-01T04:33:04.514Z,15.53
2023-02-01T04:34:04.238Z,15.49
2023-02-01T04:35:04.278Z,15.55
2023-02-01T04:36:04.294Z,15.44
2023-02-01T04:37:04.326Z,15.48
2023-02-01T04:38:04.352Z,15.51
2023-02-01T04:39:04.432Z,15.46
2023-02-01T04:40:04.735Z,15.46
2023-02-01T04:41:04.430Z,15.49
2023-02-01T04:42:04.491Z,15.51
2023-02-01T04:43:04.472Z,15.43
2023-02-01T04:44:04.502Z,15.44
2023-02-01T04:46:04.589Z,15.49
2023-02-01T04:47:04.870Z,15.44
2023-02-01T04:49:04.626Z,15.44
2023-02-01T04:50:04.650Z,15.40
2023-02-01T04:51:04.678Z,15.37
2023-02-01T04:52:04.714Z,15.38
2023-02-01T04:53:05.021Z,15.43
2023-02-01T04:54:05.054Z,15.41
2023-02-01T04:55:04.837Z,15.41
2023-02-01T04:56:04.808Z,15.40
2023-02-01T04:57:04.823Z,15.37
2023-02-01T04:58:04.853Z,15.38
2023-02-01T04:59:04.882Z,15.35
2023-02-01T05:00:04.985Z,15.35
2023-02-01T05:01:05.356Z,15.35
2023-02-01T05:02:05.056Z,15.34
2023-02-01T05:03:05.007Z,15.31
2023-02-01T05:04:05.017Z,15.34
2023-02-01T05:05:05.035Z,15.37
2023-02-01T05:06:05.170Z,15.34
2023-02-01T05:07:05.099Z,15.28
2023-02-01T05:09:05.440Z,15.27
2023-02-01T05:11:05.223Z,15.35
2023-02-01T05:12:05.229Z,15.28
2023-02-01T05:13:05.244Z,15.35
2023-02-01T05:14:05.286Z,15.25
2023-02-01T05:15:05.290Z,15.35
2023-02-01T05:16:05.638Z,15.34
2023-02-01T05:17:05.346Z,15.33
2023-02-01T05:18:05.401Z,15.35
2023-02-01T05:19:05.492Z,15.30
2023-02-01T05:20:05.416Z,15.28
2023-02-01T05:21:05.474Z,15.23
2023-02-01T05:22:05.467Z,15.23
2023-02-01T05:23:05.803Z,15.31
2023-02-01T05:24:05.523Z,15.35
2023-02-01T05:25:08.135Z,15.30
2023-02-01T05:26:05.574Z,15.22
2023-02-01T05:27:05.626Z,15.22
2023-02-01T05:28:05.626Z,15.23
2023-02-01T05:29:05.676Z,15.25
2023-02-01T05:30:05.985Z,15.30
2023-02-01T05:31:05.864Z,15.30
2023-02-01T05:32:21.060Z,15.25
2023-02-01T05:33:05.809Z,15.27
2023-02-01T05:34:05.780Z,15.23
2023-02-01T05:35:05.808Z,15.20
2023-02-01T05:36:06.938Z,15.20
2023-02-01T05:37:06.112Z,15.23
2023-02-01T05:38:05.878Z,15.15
2023-02-01T05:39:05.903Z,15.16
2023-02-01T05:40:05.929Z,15.19
2023-02-01T05:41:05.977Z,15.28
2023-02-01T05:42:05.989Z,15.19
2023-02-01T05:43:06.340Z,15.15
2023-02-01T05:44:06.032Z,15.19
2023-02-01T05:45:06.077Z,15.12
2023-02-01T05:46:06.147Z,15.15
2023-02-01T05:47:06.107Z,15.13
2023-02-01T05:49:06.558Z,15.22
2023-02-01T05:50:06.186Z,15.19
2023-02-01T05:51:06.218Z,15.11
2023-02-01T05:52:06.241Z,15.19
2023-02-01T05:53:06.267Z,15.18
2023-02-01T05:54:06.289Z,15.16
2023-02-01T05:55:06.623Z,15.19
2023-02-01T05:56:06.346Z,15.12
2023-02-01T05:57:06.360Z,15.12
2023-02-01T05:58:06.387Z,15.15
2023-02-01T05:59:06.434Z,15.13
2023-02-01T06:00:06.446Z,15.22
2023-02-01T06:01:06.463Z,15.19
2023-02-01T06:02:06.895Z,15.12
2023-02-01T06:03:06.611Z,15.19
2023-02-01T06:04:06.603Z,15.22
2023-02-01T06:05:06.565Z,15.12
2023-02-01T06:06:06.628Z,15.18
2023-02-01T06:08:06.641Z,15.18
2023-02-01T06:09:06.983Z,15.20
2023-02-01T06:10:06.795Z,15.27
2023-02-01T06:11:06.729Z,15.16
2023-02-01T06:12:06.752Z,15.19
2023-02-01T06:13:06.781Z,15.23
2023-02-01T06:14:06.798Z,15.25
2023-02-01T06:15:06.846Z,15.28
2023-02-01T06:16:07.110Z,15.25
2023-02-01T06:17:06.879Z,15.22
2023-02-01T06:18:06.918Z,15.27
2023-02-01T06:19:06.954Z,15.20
2023-02-01T06:20:06.968Z,15.20
2023-02-01T06:21:06.981Z,15.23
2023-02-01T06:22:07.070Z,15.19
2023-02-01T06:23:07.027Z,15.25
2023-02-01T06:24:07.049Z,15.20
2023-02-01T06:25:07.081Z,15.25
2023-02-01T06:26:07.199Z,15.23
2023-02-01T06:27:07.138Z,15.28
2023-02-01T06:28:07.163Z,15.25
2023-02-01T06:29:07.182Z,15.23
2023-02-01T06:30:07.300Z,15.22
2023-02-01T06:31:07.757Z,15.22
2023-02-01T06:32:07.271Z,15.27
2023-02-01T06:33:07.293Z,15.13
2023-02-01T06:34:07.388Z,15.23
2023-02-01T06:35:07.631Z,15.20
2023-02-01T06:36:07.391Z,15.23
2023-02-01T06:37:07.385Z,15.27
2023-02-01T06:38:07.414Z,15.27
2023-02-01T06:39:07.436Z,15.20
2023-02-01T06:40:07.464Z,15.25
2023-02-01T06:41:07.514Z,15.25
2023-02-01T06:42:07.519Z,15.22
2023-02-01T06:43:07.539Z,15.30
2023-02-01T06:45:07.586Z,15.30
2023-02-01T06:46:07.657Z,15.28
2023-02-01T06:47:09.277Z,15.22
2023-02-01T06:48:07.664Z,15.23
2023-02-01T06:49:07.684Z,15.27
2023-02-01T06:50:07.713Z,15.30
2023-02-01T06:51:07.741Z,15.23
2023-02-01T06:53:08.098Z,15.20
2023-02-01T06:54:07.811Z,15.20
2023-02-01T06:55:07.849Z,15.28
2023-02-01T06:56:07.865Z,15.23
2023-02-01T06:57:07.887Z,15.25
2023-02-01T06:58:07.919Z,15.18
2023-02-01T06:59:07.943Z,15.18
2023-02-01T07:00:07.978Z,15.23
2023-02-01T07:01:08.125Z,15.23
2023-02-01T07:02:08.094Z,15.22
2023-02-01T07:03:08.093Z,15.20
2023-02-01T07:04:08.074Z,15.27
2023-02-01T07:05:08.102Z,15.20
2023-02-01T07:06:08.442Z,15.25
2023-02-01T07:08:08.174Z,15.19
2023-02-01T07:09:08.195Z,15.20
2023-02-01T07:10:08.228Z,15.27
2023-02-01T07:11:08.244Z,15.16
2023-02-01T07:12:08.276Z,15.23
2023-02-01T07:13:08.595Z,15.18
2023-02-01T07:14:08.349Z,15.22
2023-02-01T07:15:08.344Z,15.22
2023-02-01T07:16:08.483Z,15.25
2023-02-01T07:17:08.496Z,15.22
2023-02-01T07:18:08.423Z,15.25
2023-02-01T07:19:08.516Z,15.23
2023-02-01T07:20:08.695Z,15.22
2023-02-01T07:21:08.506Z,15.22
2023-02-01T07:22:08.543Z,15.23
2023-02-01T07:23:08.563Z,15.25
2023-02-01T07:25:08.909Z,15.18
2023-02-01T07:26:08.669Z,15.23
2023-02-01T07:27:08.654Z,15.27
2023-02-01T07:28:08.671Z,15.22
2023-02-01T07:29:08.718Z,15.20
2023-02-01T07:30:08.725Z,15.23
2023-02-01T07:32:09.077Z,15.20
2023-02-01T07:33:08.804Z,15.19
2023-02-01T07:34:08.839Z,15.27
2023-02-01T07:35:08.873Z,15.19
2023-02-01T07:36:08.880Z,15.20
2023-02-01T07:37:08.901Z,15.27
2023-02-01T07:38:09.232Z,15.25
2023-02-01T07:39:09.256Z,15.23
2023-02-01T07:40:09.031Z,15.22
2023-02-01T07:42:09.028Z,15.19
2023-02-01T07:43:09.055Z,15.18
2023-02-01T07:44:09.081Z,15.18
2023-02-01T07:45:21.044Z,15.13
2023-02-01T07:46:09.231Z,15.16
2023-02-01T07:47:09.161Z,15.27
2023-02-01T07:48:09.180Z,15.19
2023-02-01T07:49:09.210Z,15.12
2023-02-01T07:50:09.230Z,15.07
2023-02-01T07:51:09.286Z,15.09
2023-02-01T07:52:09.323Z,15.12
2023-02-01T07:53:09.329Z,15.12
2023-02-01T07:54:09.337Z,15.13
2023-02-01T07:55:09.396Z,15.13
2023-02-01T07:56:09.696Z,15.16
2023-02-01T07:57:09.410Z,15.05
2023-02-01T08:01:09.587Z,15.11
2023-02-01T08:02:09.633Z,15.11
2023-02-01T08:03:10.154Z,15.09
2023-02-01T08:04:09.587Z,15.15
2023-02-01T08:05:09.608Z,15.09
2023-02-01T08:06:09.639Z,15.12
2023-02-01T08:07:09.683Z,15.16
2023-02-01T08:08:09.688Z,15.09
2023-02-01T08:09:09.723Z,15.03
2023-02-01T08:10:10.036Z,15.07
2023-02-01T08:11:09.761Z,15.05
2023-02-01T08:12:09.800Z,15.05
2023-02-01T08:14:09.837Z,15.07
2023-02-01T08:15:09.861Z,15.07
2023-02-01T08:16:09.967Z,15.12
2023-02-01T08:17:10.217Z,15.01
2023-02-01T08:18:09.935Z,15.05
2023-02-01T08:19:09.967Z,15.18
2023-02-01T08:20:09.987Z,15.09
2023-02-01T08:21:10.026Z,15.12
2023-02-01T08:22:10.057Z,15.05
2023-02-01T08:23:10.090Z,15.11
2023-02-01T08:24:10.367Z,15.01
2023-02-01T08:25:10.120Z,15.12
2023-02-01T08:26:10.136Z,15.04
2023-02-01T08:27:10.179Z,15.09
2023-02-01T08:28:10.203Z,15.11
2023-02-01T08:29:10.226Z,15.13
2023-02-01T08:30:10.248Z,15.11
2023-02-01T08:31:10.569Z,15.11
2023-02-01T08:33:10.317Z,15.16
2023-02-01T08:35:10.374Z,15.05
2023-02-01T08:36:10.390Z,15.01
2023-02-01T08:37:10.433Z,15.05
2023-02-01T08:38:10.873Z,15.11
2023-02-01T08:39:10.505Z,15.13
2023-02-01T08:40:10.497Z,15.09
2023-02-01T08:41:10.518Z,15.13
2023-02-01T08:42:10.552Z,15.03
2023-02-01T08:43:10.568Z,15.07
2023-02-01T08:45:10.923Z,15.07
2023-02-01T08:46:10.699Z,15.05
2023-02-01T08:47:10.677Z,15.05
2023-02-01T08:48:10.704Z,15.00
2023-02-01T08:49:10.718Z,15.11
2023-02-01T08:50:10.758Z,15.09
2023-02-01T08:51:11.021Z,15.09
2023-02-01T08:52:16.017Z,15.09
2023-02-01T08:53:10.829Z,15.09
2023-02-01T08:54:10.845Z,15.05
2023-02-01T08:55:10.893Z,15.01
2023-02-01T08:56:10.897Z,15.09
2023-02-01T08:58:11.257Z,15.15
2023-02-01T08:59:10.980Z,15.13
2023-02-01T09:00:11.003Z,15.13
2023-02-01T09:01:11.108Z,15.15
2023-02-01T09:02:11.057Z,15.13
2023-02-01T09:03:11.077Z,15.19
2023-02-01T09:04:11.490Z,15.09
2023-02-01T09:06:11.148Z,15.19
2023-02-01T09:07:11.180Z,15.13
2023-02-01T09:08:11.256Z,15.19
2023-02-01T09:10:11.547Z,15.15
2023-02-01T09:11:11.299Z,15.19
2023-02-01T09:12:11.299Z,15.19
2023-02-01T09:13:11.325Z,15.12
2023-02-01T09:14:11.372Z,15.18
2023-02-01T09:15:11.476Z,15.13
2023-02-01T09:16:11.452Z,15.19
2023-02-01T09:17:11.728Z,15.20
2023-02-01T09:18:11.474Z,15.15
2023-02-01T09:19:27.371Z,15.19
2023-02-01T09:20:11.510Z,15.23
2023-02-01T09:21:11.529Z,15.23
2023-02-01T09:22:11.555Z,15.23
2023-02-01T09:23:11.580Z,15.22
2023-02-01T09:24:11.924Z,15.23
2023-02-01T09:25:11.648Z,15.18
2023-02-01T09:26:13.197Z,15.11
2023-02-01T09:27:11.788Z,15.20
2023-02-01T09:28:11.706Z,15.13
2023-02-01T09:29:11.736Z,15.15
2023-02-01T09:30:11.761Z,15.23
2023-02-01T09:31:12.259Z,15.22
2023-02-01T09:32:11.975Z,15.19
2023-02-01T09:33:11.852Z,15.19
2023-02-01T09:34:11.862Z,15.16
2023-02-01T09:35:11.889Z,15.19
2023-02-01T09:36:11.912Z,15.22
2023-02-01T09:37:11.936Z,15.18
2023-02-01T09:38:11.966Z,15.13
2023-02-01T09:39:11.986Z,15.12
2023-02-01T09:40:12.016Z,15.23
2023-02-01T09:41:12.041Z,15.15
2023-02-01T09:42:12.069Z,15.19
2023-02-01T09:43:12.169Z,15.19
2023-02-01T09:44:12.420Z,15.19
2023-02-01T09:45:12.135Z,15.20
2023-02-01T09:46:12.229Z,15.19
2023-02-01T09:47:12.192Z,15.20
2023-02-01T09:48:12.219Z,15.23
2023-02-01T09:49:12.250Z,15.25
2023-02-01T09:50:12.267Z,15.22
2023-02-01T09:51:12.587Z,15.33
2023-02-01T09:52:12.315Z,15.20
2023-02-01T09:53:12.352Z,15.23
2023-02-01T09:54:12.383Z,15.33
2023-02-01T09:55:12.389Z,15.30
2023-02-01T09:56:12.418Z,15.20
2023-02-01T09:57:12.442Z,15.23
2023-02-01T09:58:12.723Z,15.22
2023-02-01T09:59:12.516Z,15.22
2023-02-01T10:00:12.545Z,15.20
2023-02-01T10:01:12.599Z,15.25
2023-02-01T10:02:12.569Z,15.27
2023-02-01T10:03:12.660Z,15.19
2023-02-01T10:04:12.632Z,15.19
2023-02-01T10:05:12.948Z,15.19
2023-02-01T10:06:12.673Z,15.25
2023-02-01T10:07:12.699Z,15.23
2023-02-01T10:08:12.771Z,15.25
2023-02-01T10:09:12.756Z,15.20
2023-02-01T10:10:12.834Z,15.20
2023-02-01T10:11:12.797Z,15.28
2023-02-01T10:12:13.074Z,15.27
2023-02-01T10:13:12.850Z,15.27
2023-02-01T10:14:13.008Z,15.33
2023-02-01T10:16:13.016Z,15.31
2023-02-01T10:17:12.955Z,15.23
2023-02-01T10:18:13.285Z,15.31
2023-02-01T10:19:13.006Z,15.33
2023-02-01T10:20:13.038Z,15.37
2023-02-01T10:22:13.086Z,15.33
2023-02-01T10:23:32.466Z,15.27
2023-02-01T10:24:18.073Z,15.34
2023-02-01T10:25:13.158Z,15.30
2023-02-01T10:26:13.183Z,15.34
2023-02-01T10:27:13.211Z,15.33
2023-02-01T10:28:13.234Z,15.34
2023-02-01T10:29:13.255Z,15.34
2023-02-01T10:30:13.285Z,15.34
2023-02-01T10:31:13.434Z,15.33
2023-02-01T10:33:13.379Z,15.40
2023-02-01T10:34:13.403Z,15.38
2023-02-01T10:35:13.425Z,15.41
2023-02-01T10:36:13.742Z,15.35
2023-02-01T10:37:13.475Z,15.41
2023-02-01T10:38:13.487Z,15.38
2023-02-01T10:39:13.514Z,15.38
2023-02-01T10:41:13.588Z,15.38
2023-02-01T10:42:13.623Z,15.48
2023-02-01T10:43:13.622Z,15.46
2023-02-01T10:44:13.654Z,15.44
2023-02-01T10:45:13.665Z,15.46
2023-02-01T10:46:13.766Z,15.49
2023-02-01T10:47:13.722Z,15.41
2023-02-01T10:48:13.744Z,15.48
2023-02-01T10:49:14.052Z,15.48
2023-02-01T10:50:13.853Z,15.48
2023-02-01T10:51:13.845Z,15.44
2023-02-01T10:52:13.858Z,15.55
2023-02-01T10:53:13.872Z,15.52
2023-02-01T10:54:13.906Z,15.51
2023-02-01T10:55:13.922Z,15.51
2023-02-01T10:56:13.949Z,15.58
2023-02-01T10:57:13.980Z,15.55
2023-02-01T10:58:14.001Z,15.56
2023-02-01T10:59:14.027Z,15.59
2023-02-01T11:00:14.053Z,15.64
2023-02-01T11:01:14.078Z,15.58
2023-02-01T11:02:14.403Z,15.53
2023-02-01T11:03:14.181Z,15.58
2023-02-01T11:04:14.288Z,15.58
2023-02-01T11:05:14.200Z,15.56
2023-02-01T11:06:14.208Z,15.53
2023-02-01T11:07:14.258Z,15.62
2023-02-01T11:08:14.515Z,15.58
2023-02-01T11:09:14.285Z,15.64
2023-02-01T11:10:14.331Z,15.62
2023-02-01T11:11:14.334Z,15.55
2023-02-01T11:12:14.362Z,15.58
2023-02-01T11:13:14.390Z,15.56
2023-02-01T11:14:14.440Z,15.55
2023-02-01T11:15:14.444Z,15.62
2023-02-01T11:16:14.543Z,15.62
2023-02-01T11:17:14.486Z,15.58
2023-02-01T11:18:14.536Z,15.67
2023-02-01T11:19:14.552Z,15.67
2023-02-01T11:20:14.568Z,15.53
2023-02-01T11:21:14.610Z,15.52
2023-02-01T11:22:14.620Z,15.60
2023-02-01T11:23:14.655Z,15.58
2023-02-01T11:24:14.675Z,15.62
2023-02-01T11:25:14.693Z,15.71
2023-02-01T11:26:15.153Z,15.60
2023-02-01T11:27:18.791Z,15.60
2023-02-01T11:28:14.776Z,15.70
2023-02-01T11:29:14.798Z,15.59
2023-02-01T11:30:14.825Z,15.59
2023-02-01T11:31:14.953Z,15.62
2023-02-01T11:32:14.882Z,15.67
2023-02-01T11:33:15.220Z,15.67
2023-02-01T11:34:15.051Z,15.67
2023-02-01T11:35:14.966Z,15.64
2023-02-01T11:36:14.991Z,15.66
2023-02-01T11:37:15.025Z,15.64
2023-02-01T11:38:15.026Z,15.70
2023-02-01T11:39:15.053Z,15.74
2023-02-01T11:40:15.332Z,15.76
2023-02-01T11:41:15.113Z,15.67
2023-02-01T11:42:15.135Z,15.67
2023-02-01T11:43:15.159Z,15.66
2023-02-01T11:46:15.300Z,15.68
2023-02-01T11:47:15.518Z,15.67
2023-02-01T11:49:15.323Z,15.68
2023-02-01T11:50:15.358Z,15.71
2023-02-01T11:51:15.415Z,15.66
2023-02-01T11:52:15.396Z,15.58
2023-02-01T11:53:15.436Z,15.58
2023-02-01T11:54:15.698Z,15.66
2023-02-01T11:55:15.531Z,15.58
2023-02-01T11:56:15.494Z,15.66
2023-02-01T11:57:15.524Z,15.56
2023-02-01T11:58:15.727Z,15.62
2023-02-01T11:59:15.577Z,15.70
2023-02-01T12:00:15.614Z,15.59
2023-02-01T12:01:15.872Z,15.58
2023-02-01T12:02:15.653Z,15.58
2023-02-01T12:03:15.739Z,15.60
2023-02-01T12:04:15.719Z,15.56
2023-02-01T12:05:15.781Z,15.62
2023-02-01T12:06:15.755Z,15.51
2023-02-01T12:07:15.786Z,15.53
2023-02-01T12:08:15.809Z,15.56
2023-02-01T12:09:15.856Z,15.55
2023-02-01T12:10:15.871Z,15.53
2023-02-01T12:11:15.915Z,15.44
2023-02-01T12:12:15.909Z,15.58
2023-02-01T12:13:15.940Z,15.44
2023-02-01T12:14:17.963Z,15.46
2023-02-01T12:15:15.986Z,15.48
2023-02-01T12:16:16.050Z,15.58
2023-02-01T12:17:16.045Z,15.51
2023-02-01T12:18:16.078Z,15.58
2023-02-01T12:19:16.198Z,15.56
2023-02-01T12:20:16.715Z,15.59
2023-02-01T12:21:16.257Z,15.60
2023-02-01T12:23:16.189Z,15.58
2023-02-01T12:24:16.228Z,15.55
2023-02-01T12:25:16.272Z,15.62
2023-02-01T12:26:18.513Z,15.64
2023-02-01T12:27:16.313Z,15.55
2023-02-01T12:28:16.332Z,15.58
2023-02-01T12:29:16.347Z,15.62
2023-02-01T12:30:16.375Z,15.64
2023-02-01T12:31:16.461Z,15.67
2023-02-01T12:32:16.729Z,15.60
2023-02-01T12:33:16.461Z,15.60
2023-02-01T12:34:16.483Z,15.68
2023-02-01T12:35:16.515Z,15.58
2023-02-01T12:36:16.538Z,15.51
2023-02-01T12:37:16.557Z,15.59
2023-02-01T12:38:16.658Z,15.51
2023-02-01T12:39:16.906Z,15.56
2023-02-01T12:40:16.644Z,15.56
2023-02-01T12:41:16.685Z,15.64
2023-02-01T12:42:16.684Z,15.64
2023-02-01T12:43:16.815Z,15.68
2023-02-01T12:44:16.743Z,15.56
2023-02-01T12:45:16.773Z,15.53
2023-02-01T12:46:17.071Z,15.62
2023-02-01T12:47:16.815Z,15.56
2023-02-01T12:48:16.846Z,15.48
2023-02-01T12:49:16.874Z,15.53
2023-02-01T12:50:16.909Z,15.46
2023-02-01T12:51:16.914Z,15.44
2023-02-01T12:52:16.955Z,15.49
2023-02-01T12:53:17.275Z,15.51
2023-02-01T12:54:17.011Z,15.52
2023-02-01T12:55:17.017Z,15.51
2023-02-01T12:56:17.044Z,15.46
2023-02-01T12:57:17.090Z,15.53
2023-02-01T12:58:17.097Z,15.51
2023-02-01T12:59:17.120Z,15.52
2023-02-01T13:00:17.459Z,15.48
2023-02-01T13:01:17.237Z,15.44
2023-02-01T13:02:17.256Z,15.49
2023-02-01T13:03:17.236Z,15.40
2023-02-01T13:04:17.279Z,15.46
2023-02-01T13:06:17.610Z,15.43
2023-02-01T13:08:17.399Z,15.48
2023-02-01T13:09:17.379Z,15.41
2023-02-01T13:10:17.408Z,15.41
2023-02-01T13:11:17.433Z,15.46
2023-02-01T13:12:17.460Z,15.38
2023-02-01T13:13:17.815Z,15.35
2023-02-01T13:14:17.511Z,15.44
2023-02-01T13:17:17.589Z,15.46
2023-02-01T13:18:17.620Z,15.35
2023-02-01T13:19:17.948Z,15.46
2023-02-01T13:20:17.664Z,15.38
2023-02-01T13:21:17.705Z,15.40
2023-02-01T13:22:17.719Z,15.44
2023-02-01T13:23:18.805Z,15.37
2023-02-01T13:24:17.770Z,15.41
2023-02-01T13:25:18.095Z,15.37
2023-02-01T13:26:17.899Z,15.40
2023-02-01T13:27:17.861Z,15.44
2023-02-01T13:28:17.878Z,15.38
2023-02-01T13:29:17.940Z,15.35
2023-02-01T13:30:17.927Z,15.34
2023-02-01T13:31:18.393Z,15.40
2023-02-01T13:32:17.985Z,15.33
2023-02-01T13:35:18.059Z,15.38
2023-02-01T13:36:18.230Z,15.35
2023-02-01T13:38:18.437Z,15.34
2023-02-01T13:39:18.152Z,15.33
2023-02-01T13:40:18.180Z,15.37
2023-02-01T13:41:18.210Z,15.38
2023-02-01T13:42:18.259Z,15.37
2023-02-01T13:43:18.286Z,15.31
2023-02-01T13:44:18.286Z,15.28
2023-02-01T13:45:18.599Z,15.34
2023-02-01T13:46:18.393Z,15.34
2023-02-01T13:47:18.365Z,15.28
2023-02-01T13:48:18.395Z,15.33
2023-02-01T13:49:18.424Z,15.35